createdAt,value
2023-01-01T00:02:25.481Z,15.13
2023-01-01T00:04:52.352Z,15.13
2023-01-01T00:07:18.812Z,15.11
2023-01-01T00:10:07.494Z,15.13
2023-01-01T00:12:34.965Z,15.13
2023-01-01T00:15:01.769Z,15.12
2023-01-01T00:17:29.601Z,15.13
2023-01-01T00:19:56.043Z,15.13
2023-01-01T00:25:11.169Z,15.17
2023-01-01T00:27:37.534Z,15.17
2023-01-01T00:30:04.471Z,15.21
2023-01-01T00:32:31.106Z,15.21
2023-01-01T00:34:58.779Z,15.21
2023-01-01T00:37:25.172Z,15.21
2023-01-01T00:39:51.599Z,15.24
2023-01-01T00:42:21.514Z,15.24
2023-01-01T00:44:48.253Z,15.27
2023-01-01T00:47:14.791Z,15.26
2023-01-01T00:49:41.379Z,15.25
2023-01-01T00:52:08.047Z,15.26
2023-01-01T00:54:35.173Z,15.25
2023-01-01T00:57:02.046Z,15.26
2023-01-01T00:59:29.299Z,15.25
2023-01-01T01:01:58.516Z,15.22
2023-01-01T01:04:25.898Z,15.25
2023-01-01T01:06:52.416Z,15.24
2023-01-01T01:09:18.859Z,15.23
2023-01-01T01:11:45.492Z,15.25
2023-01-01T01:14:11.981Z,15.25
2023-01-01T01:16:38.833Z,15.24
2023-01-01T01:19:06.449Z,15.26
2023-01-01T01:21:34.696Z,15.27
2023-01-01T01:24:03.684Z,15.26
2023-01-01T01:26:33.293Z,15.25
2023-01-01T01:29:00.413Z,15.26
2023-01-01T01:31:30.051Z,15.23
2023-01-01T01:33:57.634Z,15.23
2023-01-01T01:36:25.520Z,15.22
2023-01-01T01:38:55.719Z,15.19
2023-01-01T01:41:28.211Z,15.17
2023-01-01T01:44:04.060Z,15.16
2023-01-01T01:46:54.136Z,15.17
2023-01-01T01:49:31.928Z,15.16
2023-01-01T01:52:09.859Z,15.14
2023-01-01T01:54:36.901Z,15.13
2023-01-01T01:57:11.079Z,15.14
2023-01-01T01:59:42.727Z,15.14
2023-01-01T02:02:26.505Z,15.14
2023-01-01T02:04:55.828Z,15.14
2023-01-01T02:07:25.838Z,15.13
2023-01-01T02:09:53.612Z,15.13
2023-01-01T02:12:22.872Z,15.13
2023-01-01T02:14:49.338Z,15.14
2023-01-01T02:17:56.613Z,15.14
2023-01-01T02:20:33.733Z,15.13
2023-01-01T02:23:22.995Z,15.14
2023-01-01T02:26:38.456Z,15.14
2023-01-01T02:29:16.831Z,15.14
2023-01-01T02:32:08.038Z,15.14
2023-01-01T02:34:43.229Z,15.14
2023-01-01T02:37:13.302Z,15.12
2023-01-01T02:39:47.452Z,15.13
2023-01-01T02:42:15.948Z,15.13
2023-01-01T02:44:45.531Z,15.11
2023-01-01T02:47:16.689Z,15.13
2023-01-01T02:53:01.053Z,15.10
2023-01-01T02:55:37.402Z,15.07
2023-01-01T02:58:54.564Z,15.04
2023-01-01T03:01:58.950Z,15.05
2023-01-01T03:04:53.244Z,15.02
2023-01-01T03:07:36.131Z,15.02
2023-01-01T03:10:15.622Z,15.01
2023-01-01T03:13:27.178Z,15.02
2023-01-01T03:16:14.204Z,14.97
2023-01-01T03:19:26.008Z,14.98
2023-01-01T03:22:07.015Z,14.94
2023-01-01T03:24:39.095Z,14.94
2023-01-01T03:27:14.554Z,14.91
2023-01-01T03:29:43.396Z,14.93
2023-01-01T03:32:14.638Z,14.92
2023-01-01T03:34:48.277Z,14.94
2023-01-01T03:37:22.930Z,14.94
2023-01-01T03:39:53.215Z,14.87
2023-01-01T03:42:44.137Z,14.80
2023-01-01T03:45:29.328Z,14.76
2023-01-01T03:47:57.196Z,14.70
2023-01-01T03:50:32.041Z,14.69
2023-01-01T03:53:15.012Z,14.68
2023-01-01T03:56:04.738Z,14.70
2023-01-01T03:58:41.225Z,14.68
2023-01-01T04:01:24.737Z,14.69
2023-01-01T04:03:51.977Z,14.66
2023-01-01T04:06:18.736Z,14.63
2023-01-01T04:08:46.514Z,14.61
2023-01-01T04:11:47.515Z,14.60
2023-01-01T04:14:14.103Z,14.56
2023-01-01T04:16:40.736Z,14.55
2023-01-01T04:19:07.346Z,14.57
2023-01-01T04:21:34.018Z,14.54
2023-01-01T04:24:00.469Z,14.50
2023-01-01T04:26:27.052Z,14.48
2023-01-01T04:28:53.676Z,14.45
2023-01-01T04:31:20.156Z,14.42
2023-01-01T04:33:46.515Z,14.41
2023-01-01T04:36:12.882Z,14.39
2023-01-01T04:38:39.435Z,14.39
2023-01-01T04:41:05.907Z,14.35
2023-01-01T04:43:32.818Z,14.34
2023-01-01T04:46:07.515Z,14.31
2023-01-01T04:48:35.696Z,14.25
2023-01-01T04:51:04.609Z,14.20
2023-01-01T04:53:33.075Z,14.13
2023-01-01T04:56:06.183Z,14.15
2023-01-01T04:58:33.839Z,14.10
2023-01-01T05:01:00.370Z,14.06
2023-01-01T05:03:26.963Z,14.02
2023-01-01T05:06:08.200Z,13.98
2023-01-01T05:08:37.890Z,13.92
2023-01-01T05:11:07.453Z,13.89
2023-01-01T05:13:42.722Z,13.87
2023-01-01T05:16:11.906Z,13.85
2023-01-01T05:18:39.709Z,13.83
2023-01-01T05:21:13.032Z,13.83
2023-01-01T05:23:40.159Z,13.87
2023-01-01T05:26:33.952Z,13.84
2023-01-01T05:29:01.317Z,13.83
2023-01-01T05:31:30.914Z,13.83
2023-01-01T05:36:30.032Z,13.79
2023-01-01T05:38:58.744Z,13.76
2023-01-01T05:41:28.569Z,13.76
2023-01-01T05:43:55.476Z,13.75
2023-01-01T05:46:25.216Z,13.73
2023-01-01T05:48:54.117Z,13.71
2023-01-01T05:51:23.758Z,13.68
2023-01-01T05:53:51.180Z,13.69
2023-01-01T05:56:19.029Z,13.68
2023-01-01T05:58:48.884Z,13.68
2023-01-01T06:01:20.457Z,13.67
2023-01-01T06:03:50.136Z,13.68
2023-01-01T06:06:19.267Z,13.67
2023-01-01T06:08:58.895Z,13.68
2023-01-01T06:11:28.813Z,13.65
2023-01-01T06:13:57.751Z,13.66
2023-01-01T06:16:25.142Z,13.63
2023-01-01T06:18:52.047Z,13.60
2023-01-01T06:21:21.500Z,13.58
2023-01-01T06:23:48.454Z,13.58
2023-01-01T06:26:18.129Z,13.56
2023-01-01T06:28:46.239Z,13.55
2023-01-01T06:31:20.505Z,13.51
2023-01-01T06:33:47.520Z,13.52
2023-01-01T06:36:15.684Z,13.53
2023-01-01T06:38:54.340Z,13.53
2023-01-01T06:41:23.605Z,13.53
2023-01-01T06:43:56.345Z,13.49
2023-01-01T06:46:28.263Z,13.47
2023-01-01T06:49:09.789Z,13.48
2023-01-01T06:51:39.217Z,13.40
2023-01-01T06:54:06.603Z,13.38
2023-01-01T06:56:34.457Z,13.36
2023-01-01T06:59:01.358Z,13.37
2023-01-01T07:01:30.206Z,13.34
2023-01-01T07:03:59.625Z,13.33
2023-01-01T07:06:28.087Z,13.32
2023-01-01T07:08:54.898Z,13.31
2023-01-01T07:11:21.644Z,13.30
2023-01-01T07:13:48.140Z,13.30
2023-01-01T07:16:16.397Z,13.31
2023-01-01T07:18:47.552Z,13.27
2023-01-01T07:21:51.030Z,13.26
2023-01-01T07:24:18.361Z,13.20
2023-01-01T07:26:45.372Z,13.18
2023-01-01T07:29:13.001Z,13.15
2023-01-01T07:31:41.914Z,13.15
2023-01-01T07:34:13.977Z,13.12
2023-01-01T07:36:41.175Z,13.11
2023-01-01T07:39:10.771Z,13.05
2023-01-01T07:41:37.351Z,13.03
2023-01-01T07:44:04.148Z,13.02
2023-01-01T07:46:30.706Z,13.01
2023-01-01T07:48:57.392Z,13.01
2023-01-01T07:51:24.105Z,12.97
2023-01-01T07:53:50.610Z,12.94
2023-01-01T07:56:17.324Z,12.90
2023-01-01T07:58:43.917Z,12.88
2023-01-01T08:01:12.688Z,12.82
2023-01-01T08:03:39.345Z,12.77
2023-01-01T08:06:10.690Z,12.76
2023-01-01T08:08:40.315Z,12.75
2023-01-01T08:11:07.710Z,12.73
2023-01-01T08:13:34.406Z,12.71
2023-01-01T08:16:00.925Z,12.69
2023-01-01T08:18:27.359Z,12.68
2023-01-01T08:20:54.143Z,12.68
2023-01-01T08:23:21.051Z,12.63
2023-01-01T08:25:47.540Z,12.59
2023-01-01T08:28:13.992Z,12.57
2023-01-01T08:30:40.454Z,12.56
2023-01-01T08:33:06.897Z,12.54
2023-01-01T08:35:35.910Z,12.52
2023-01-01T08:38:02.379Z,12.48
2023-01-01T08:40:28.856Z,12.47
2023-01-01T08:42:55.340Z,12.35
2023-01-01T08:45:21.768Z,12.46
2023-01-01T08:47:48.200Z,12.45
2023-01-01T08:50:14.749Z,12.41
2023-01-01T08:52:41.342Z,12.44
2023-01-01T08:55:08.156Z,12.44
2023-01-01T08:57:34.619Z,12.50
2023-01-01T09:00:01.193Z,12.51
2023-01-01T09:02:28.117Z,12.51
2023-01-01T09:04:54.658Z,12.49
2023-01-01T09:07:21.100Z,12.54
2023-01-01T09:09:47.747Z,12.54
2023-01-01T09:12:16.760Z,12.57
2023-01-01T09:14:46.866Z,12.61
2023-01-01T09:17:13.713Z,12.64
2023-01-01T09:19:49.935Z,12.68
2023-01-01T09:22:16.507Z,12.70
2023-01-01T09:24:43.533Z,12.75
2023-01-01T09:27:10.175Z,12.82
2023-01-01T09:29:36.653Z,12.94
2023-01-01T09:32:03.205Z,13.09
2023-01-01T09:34:30.101Z,13.32
2023-01-01T09:36:57.447Z,13.64
2023-01-01T09:39:27.219Z,13.97
2023-01-01T09:42:15.257Z,14.11
2023-01-01T09:45:06.090Z,14.10
2023-01-01T09:47:45.992Z,14.14
2023-01-01T09:50:17.678Z,14.07
2023-01-01T09:53:24.486Z,14.01
2023-01-01T09:55:59.917Z,13.90
2023-01-01T09:58:38.295Z,13.85
2023-01-01T10:01:24.193Z,13.79
2023-01-01T10:04:31.838Z,13.75
2023-01-01T10:07:25.851Z,13.73
2023-01-01T10:09:52.421Z,13.69
2023-01-01T10:12:37.122Z,13.65
2023-01-01T10:15:18.717Z,13.63
2023-01-01T10:17:57.571Z,13.64
2023-01-01T10:20:33.662Z,13.72
2023-01-01T10:23:12.634Z,13.82
2023-01-01T10:25:40.859Z,13.97
2023-01-01T10:28:19.579Z,14.02
2023-01-01T10:30:51.256Z,14.06
2023-01-01T10:33:28.473Z,14.04
2023-01-01T10:35:56.792Z,14.05
2023-01-01T10:38:26.006Z,14.08
2023-01-01T10:41:13.785Z,14.15
2023-01-01T10:43:45.223Z,14.24
2023-01-01T10:46:19.916Z,14.47
2023-01-01T10:49:05.541Z,14.80
2023-01-01T10:51:34.627Z,14.91
2023-01-01T10:54:04.187Z,14.91
2023-01-01T10:56:41.223Z,14.94
2023-01-01T10:59:38.235Z,14.92
2023-01-01T11:02:14.680Z,14.82
2023-01-01T11:04:41.256Z,14.78
2023-01-01T11:07:08.231Z,14.71
2023-01-01T11:09:38.465Z,14.65
2023-01-01T11:12:46.049Z,14.59
2023-01-01T11:15:05.682Z,14.49
2023-01-01T11:17:36.386Z,14.44
2023-01-01T11:20:04.876Z,14.37
2023-01-01T11:22:52.915Z,14.33
2023-01-01T11:25:22.058Z,14.30
2023-01-01T11:27:50.181Z,14.25
2023-01-01T11:30:21.555Z,14.28
2023-01-01T11:32:55.253Z,14.43
2023-01-01T11:35:29.739Z,14.45
2023-01-01T11:38:00.675Z,14.43
2023-01-01T11:40:30.934Z,14.33
2023-01-01T11:43:00.279Z,14.23
2023-01-01T11:45:38.239Z,14.09
2023-01-01T11:48:14.103Z,14.07
2023-01-01T11:50:53.613Z,14.06
2023-01-01T11:53:41.884Z,14.07
2023-01-01T11:56:28.780Z,13.97
2023-01-01T11:58:58.973Z,13.90
2023-01-01T12:01:27.411Z,13.88
2023-01-01T12:04:08.762Z,13.84
2023-01-01T12:06:50.127Z,13.81
2023-01-01T12:09:30.082Z,13.79
2023-01-01T12:12:24.957Z,13.78
2023-01-01T12:14:56.071Z,13.79
2023-01-01T12:17:42.760Z,13.78
2023-01-01T12:20:11.803Z,13.77
2023-01-01T12:22:39.554Z,13.74
2023-01-01T12:25:07.182Z,13.74
2023-01-01T12:27:50.223Z,13.77
2023-01-01T12:30:36.135Z,13.81
2023-01-01T12:33:33.622Z,13.81
2023-01-01T12:36:11.678Z,13.78
2023-01-01T12:38:56.597Z,13.76
2023-01-01T12:41:47.168Z,13.75
2023-01-01T12:44:38.204Z,13.74
2023-01-01T12:47:23.539Z,13.77
2023-01-01T12:50:07.695Z,13.76
2023-01-01T12:52:51.287Z,13.72
2023-01-01T12:55:53.385Z,13.73
2023-01-01T12:58:46.543Z,13.75
2023-01-01T13:01:20.984Z,13.76
2023-01-01T13:04:04.331Z,13.74
2023-01-01T13:06:40.557Z,13.73
2023-01-01T13:09:14.315Z,13.72
2023-01-01T13:11:50.073Z,13.74
2023-01-01T13:14:19.617Z,13.73
2023-01-01T13:16:53.127Z,13.75
2023-01-01T13:19:42.667Z,13.75
2023-01-01T13:22:27.447Z,13.73
2023-01-01T13:25:31.029Z,13.76
2023-01-01T13:27:57.504Z,13.77
2023-01-01T13:30:37.112Z,13.78
2023-01-01T13:33:29.071Z,13.77
2023-01-01T13:36:08.799Z,13.76
2023-01-01T13:38:52.472Z,13.75
2023-01-01T13:41:43.459Z,13.71
2023-01-01T13:44:09.959Z,13.70
2023-01-01T13:46:43.472Z,13.68
2023-01-01T13:49:43.071Z,13.57
2023-01-01T13:52:38.927Z,13.67
2023-01-01T13:55:14.389Z,13.65
2023-01-01T13:58:21.215Z,13.67
2023-01-01T14:01:24.256Z,13.66
2023-01-01T14:03:55.281Z,13.62
2023-01-01T14:07:49.754Z,13.60
2023-01-01T14:10:37.069Z,13.60
2023-01-01T14:13:10.163Z,13.56
2023-01-01T14:15:39.862Z,13.54
2023-01-01T14:18:18.054Z,13.56
2023-01-01T14:20:50.874Z,13.56
2023-01-01T14:23:36.627Z,13.56
2023-01-01T14:26:08.392Z,13.52
2023-01-01T14:28:39.243Z,13.53
2023-01-01T14:31:21.171Z,13.55
2023-01-01T14:33:47.922Z,13.53
2023-01-01T14:36:20.225Z,13.53
2023-01-01T14:38:49.401Z,13.52
2023-01-01T14:41:36.061Z,13.53
2023-01-01T14:44:14.511Z,13.53
2023-01-01T14:46:47.025Z,13.54
2023-01-01T14:49:37.941Z,13.54
2023-01-01T14:52:18.708Z,13.57
2023-01-01T14:54:46.913Z,13.57
2023-01-01T14:57:25.566Z,13.50
2023-01-01T14:59:54.601Z,13.53
2023-01-01T15:02:22.448Z,13.53
2023-01-01T15:04:49.282Z,13.52
2023-01-01T15:07:27.782Z,13.56
2023-01-01T15:09:56.694Z,13.57
2023-01-01T15:12:23.827Z,13.56
2023-01-01T15:14:52.628Z,13.54
2023-01-01T15:17:25.290Z,13.54
2023-01-01T15:20:22.357Z,13.57
2023-01-01T15:22:50.637Z,13.55
2023-01-01T15:25:19.571Z,13.57
2023-01-01T15:27:50.823Z,13.58
2023-01-01T15:30:27.089Z,13.58
2023-01-01T15:32:54.306Z,13.56
2023-01-01T15:35:31.146Z,13.59
2023-01-01T15:38:04.926Z,13.60
2023-01-01T15:40:36.137Z,13.58
2023-01-01T15:43:02.569Z,13.54
2023-01-01T15:45:35.741Z,13.53
2023-01-01T15:48:12.906Z,13.56
2023-01-01T15:50:54.833Z,13.55
2023-01-01T15:53:24.009Z,13.55
2023-01-01T15:56:05.401Z,13.56
2023-01-01T15:58:37.887Z,13.52
2023-01-01T16:01:09.192Z,13.47
2023-01-01T16:03:37.663Z,13.44
2023-01-01T16:06:04.841Z,13.40
2023-01-01T16:08:33.748Z,13.46
2023-01-01T16:11:00.175Z,13.46
2023-01-01T16:13:26.889Z,13.45
2023-01-01T16:15:59.892Z,13.44
2023-01-01T16:18:31.249Z,13.46
2023-01-01T16:20:58.066Z,13.46
2023-01-01T16:23:24.488Z,13.44
2023-01-01T16:25:50.942Z,13.43
2023-01-01T16:28:17.406Z,13.42
2023-01-01T16:30:44.531Z,13.43
2023-01-01T16:33:15.944Z,13.41
2023-01-01T16:35:42.528Z,13.45
2023-01-01T16:38:08.943Z,13.41
2023-01-01T16:40:38.152Z,13.35
2023-01-01T16:43:09.287Z,13.37
2023-01-01T16:45:35.921Z,13.38
2023-01-01T16:48:02.369Z,13.37
2023-01-01T16:50:28.810Z,13.36
2023-01-01T16:52:55.343Z,13.30
2023-01-01T16:55:21.856Z,13.26
2023-01-01T16:57:48.644Z,13.24
2023-01-01T17:00:15.722Z,13.25
2023-01-01T17:02:44.240Z,13.23
2023-01-01T17:05:13.313Z,13.25
2023-01-01T17:07:39.898Z,13.27
2023-01-01T17:10:06.919Z,13.22
2023-01-01T17:12:33.359Z,13.20
2023-01-01T17:14:59.935Z,13.20
2023-01-01T17:17:26.401Z,13.15
2023-01-01T17:19:52.886Z,13.18
2023-01-01T17:22:19.363Z,13.22
2023-01-01T17:24:45.773Z,13.24
2023-01-01T17:27:12.211Z,13.26
2023-01-01T17:29:38.627Z,13.31
2023-01-01T17:32:05.802Z,13.33
2023-01-01T17:34:32.249Z,13.31
2023-01-01T17:36:58.674Z,13.30
2023-01-01T17:39:25.030Z,13.30
2023-01-01T17:41:51.450Z,13.27
2023-01-01T17:44:17.861Z,13.28
2023-01-01T17:46:44.754Z,13.20
2023-01-01T17:49:11.346Z,13.20
2023-01-01T17:51:39.310Z,13.22
2023-01-01T17:54:07.270Z,13.20
2023-01-01T17:56:33.811Z,13.17
2023-01-01T17:59:00.225Z,13.15
2023-01-01T18:01:32.353Z,13.13
2023-01-01T18:04:07.317Z,13.14
2023-01-01T18:06:41.112Z,13.12
2023-01-01T18:09:12.212Z,13.07
2023-01-01T18:11:38.846Z,13.07
2023-01-01T18:14:05.827Z,13.04
2023-01-01T18:16:34.646Z,13.02
2023-01-01T18:19:03.984Z,12.99
2023-01-01T18:21:31.998Z,13.00
2023-01-01T18:23:59.095Z,13.00
2023-01-01T18:26:30.147Z,12.91
2023-01-01T18:28:59.330Z,12.86
2023-01-01T18:31:33.429Z,12.85
2023-01-01T18:34:03.219Z,12.79
2023-01-01T18:36:35.867Z,12.76
2023-01-01T18:39:21.389Z,12.74
2023-01-01T18:41:48.599Z,12.74
2023-01-01T18:44:22.232Z,12.73
2023-01-01T18:47:25.323Z,12.71
2023-01-01T18:50:15.675Z,12.66
2023-01-01T18:52:42.151Z,12.63
2023-01-01T18:55:19.292Z,12.61
2023-01-01T18:57:50.627Z,12.60
2023-01-01T19:00:26.148Z,12.57
2023-01-01T19:02:59.054Z,12.56
2023-01-01T19:05:30.549Z,12.53
2023-01-01T19:08:03.432Z,12.50
2023-01-01T19:10:36.051Z,12.41
2023-01-01T19:16:31.751Z,12.35
2023-01-01T19:19:22.104Z,12.32
2023-01-01T19:22:43.602Z,12.30
2023-01-01T19:25:31.999Z,12.29
2023-01-01T19:28:34.523Z,12.26
2023-01-01T19:31:05.947Z,12.26
2023-01-01T19:33:32.663Z,12.29
2023-01-01T19:36:01.913Z,12.27
2023-01-01T19:38:28.691Z,12.28
2023-01-01T19:40:55.719Z,12.29
2023-01-01T19:43:22.482Z,12.34
2023-01-01T19:45:49.193Z,12.32
2023-01-01T19:48:15.833Z,12.34
2023-01-01T19:50:42.487Z,12.36
2023-01-01T19:53:09.030Z,12.35
2023-01-01T19:55:37.583Z,12.30
2023-01-01T19:58:03.983Z,12.36
2023-01-01T20:00:30.908Z,12.40
2023-01-01T20:03:12.919Z,12.42
2023-01-01T20:05:44.326Z,12.44
2023-01-01T20:08:11.152Z,12.44
2023-01-01T20:10:37.723Z,12.44
2023-01-01T20:13:04.878Z,12.39
2023-01-01T20:15:31.579Z,12.37
2023-01-01T20:17:59.897Z,12.32
2023-01-01T20:20:26.623Z,12.30
2023-01-01T20:22:53.107Z,12.27
2023-01-01T20:25:20.788Z,12.27
2023-01-01T20:28:22.016Z,12.29
2023-01-01T20:30:55.991Z,12.28
2023-01-01T20:33:22.511Z,12.25
2023-01-01T20:36:08.131Z,12.23
2023-01-01T20:38:40.488Z,12.23
2023-01-01T20:41:25.631Z,12.25
2023-01-01T20:43:59.563Z,12.27
2023-01-01T20:46:33.646Z,12.22
2023-01-01T20:49:04.471Z,12.22
2023-01-01T20:51:30.959Z,12.23
2023-01-01T20:53:57.929Z,12.21
2023-01-01T20:56:24.404Z,12.20
2023-01-01T20:58:57.440Z,12.21
2023-01-01T21:01:30.879Z,12.24
2023-01-01T21:03:57.577Z,12.23
2023-01-01T21:06:33.361Z,12.22
2023-01-01T21:08:59.942Z,12.19
2023-01-01T21:11:31.905Z,12.15
2023-01-01T21:14:02.763Z,12.09
2023-01-01T21:16:38.164Z,12.10
2023-01-01T21:19:08.440Z,12.12
2023-01-01T21:21:48.335Z,12.10
2023-01-01T21:24:26.685Z,12.08
2023-01-01T21:26:59.708Z,12.05
2023-01-01T21:29:31.998Z,12.06
2023-01-01T21:38:32.577Z,12.02
2023-01-01T21:41:00.140Z,12.04
2023-01-01T21:43:36.505Z,12.01
2023-01-01T21:49:37.124Z,12.09
2023-01-01T21:52:19.968Z,12.09
2023-01-01T21:54:57.311Z,12.12
2023-01-01T21:57:39.213Z,12.11
2023-01-01T22:00:06.728Z,12.11
2023-01-01T22:02:38.732Z,12.17
2023-01-01T22:05:31.986Z,12.19
2023-01-01T22:08:34.147Z,12.23
2023-01-01T22:11:02.928Z,12.23
2023-01-01T22:13:32.877Z,12.26
2023-01-01T22:15:59.359Z,12.25
2023-01-01T22:18:28.002Z,12.30
2023-01-01T22:20:56.379Z,12.34
2023-01-01T22:23:26.976Z,12.34
2023-01-01T22:25:57.284Z,12.34
2023-01-01T22:28:27.143Z,12.30
2023-01-01T22:30:59.224Z,12.26
2023-01-01T22:33:40.370Z,12.28
2023-01-01T22:36:21.366Z,12.22
2023-01-01T22:39:05.033Z,12.16
2023-01-01T22:41:32.932Z,12.14
2023-01-01T22:44:04.965Z,12.14
2023-01-01T22:46:34.467Z,12.17
2023-01-01T22:49:28.189Z,12.17
2023-01-01T22:51:56.144Z,12.16
2023-01-01T22:54:27.080Z,12.15
2023-01-01T22:57:00.660Z,12.15
2023-01-01T22:59:37.235Z,12.11
2023-01-01T23:02:08.553Z,12.13
2023-01-01T23:04:38.759Z,12.14
2023-01-01T23:07:06.784Z,12.16
2023-01-01T23:09:33.960Z,12.17
2023-01-01T23:12:00.361Z,12.21
2023-01-01T23:14:47.793Z,12.24
2023-01-01T23:17:14.403Z,12.26
2023-01-01T23:19:40.834Z,12.28
2023-01-01T23:22:10.259Z,12.28
2023-01-01T23:24:37.346Z,12.23
2023-01-01T23:27:03.883Z,12.12
2023-01-01T23:29:32.055Z,12.28
2023-01-01T23:31:59.849Z,12.30
2023-01-01T23:34:32.075Z,12.30
2023-01-01T23:37:08.120Z,12.34
2023-01-01T23:39:41.079Z,12.31
2023-01-01T23:42:07.500Z,12.30
2023-01-01T23:44:34.025Z,12.29
2023-01-01T23:47:01.258Z,12.30
2023-01-01T23:49:30.076Z,12.27
2023-01-01T23:51:56.862Z,12.31
2023-01-01T23:54:23.438Z,12.32
2023-01-01T23:56:49.931Z,12.32
2023-01-01T23:59:16.357Z,12.33
